sensor_id;sensor_type;location;lat;lon;timestamp;temperature;humidity
49042;DHT22;34859;51.608;11.462;2023-02-15T00:00:41;-0.10;99.90
49042;DHT22;34859;51.608;11.462;2023-02-15T00:03:06;0.00;99.90
49042;DHT22;34859;51.608;11.462;2023-02-15T00:05:32;-0.20;99.90
49042;DHT22;34859;51.608;11.462;2023-02-15T00:07:58;-0.40;99.90
49042;DHT22;34859;51.608;11.462;2023-02-15T00:10:23;-0.50;99.90
49042;DHT22;34859;51.608;11.462;2023-02-15T00:12:49;-0.60;99.90
49042;DHT22;34859;51.608;11.462;2023-02-15T00:15:14;-0.60;99.90
49042;DHT22;34859;51.608;11.462;2023-02-15T00:17:40;-0.50;99.90
49042;DHT22;34859;51.608;11.462;2023-02-15T00:20:06;-0.30;99.90
49042;DHT22;34859;51.608;11.462;2023-02-15T00:22:32;-0.20;99.90
49042;DHT22;34859;51.608;11.462;2023-02-15T00:24:58;-0.20;99.90
49042;DHT22;34859;51.608;11.462;2023-02-15T00:27:23;-0.20;99.90
49042;DHT22;34859;51.608;11.462;2023-02-15T00:29:49;-0.30;99.90
49042;DHT22;34859;51.608;11.462;2023-02-15T00:32:15;-0.20;99.90
49042;DHT22;34859;51.608;11.462;2023-02-15T00:34:40;-0.20;99.90
49042;DHT22;34859;51.608;11.462;2023-02-15T00:37:06;-0.20;99.90
49042;DHT22;34859;51.608;11.462;2023-02-15T00:39:31;-0.20;99.90
49042;DHT22;34859;51.608;11.462;2023-02-15T00:41:57;-0.20;99.90
49042;DHT22;34859;51.608;11.462;2023-02-15T00:44:23;-0.40;99.90
49042;DHT22;34859;51.608;11.462;2023-02-15T00:46:48;-0.50;99.90
49042;DHT22;34859;51.608;11.462;2023-02-15T00:49:14;-0.50;99.90
49042;DHT22;34859;51.608;11.462;2023-02-15T00:51:39;-0.50;99.90
49042;DHT22;34859;51.608;11.462;2023-02-15T00:54:05;-0.40;99.90
49042;DHT22;34859;51.608;11.462;2023-02-15T00:56:31;-0.40;99.90
49042;DHT22;34859;51.608;11.462;2023-02-15T00:58:56;-0.40;99.90
49042;DHT22;34859;51.608;11.462;2023-02-15T01:01:22;-0.50;99.90
49042;DHT22;34859;51.608;11.462;2023-02-15T01:03:48;-0.60;99.90
49042;DHT22;34859;51.608;11.462;2023-02-15T01:06:15;-0.60;99.90
49042;DHT22;34859;51.608;11.462;2023-02-15T01:08:41;-0.50;99.90
49042;DHT22;34859;51.608;11.462;2023-02-15T01:11:08;-0.50;99.90
49042;DHT22;34859;51.608;11.462;2023-02-15T01:13:34;-0.50;99.90
49042;DHT22;34859;51.608;11.462;2023-02-15T01:16:00;-0.50;99.90
49042;DHT22;34859;51.608;11.462;2023-02-15T01:18:26;-0.50;99.90
49042;DHT22;34859;51.608;11.462;2023-02-15T01:20:52;-0.60;99.90
49042;DHT22;34859;51.608;11.462;2023-02-15T01:23:18;-0.60;99.90
49042;DHT22;34859;51.608;11.462;2023-02-15T01:25:43;-0.60;99.90
49042;DHT22;34859;51.608;11.462;2023-02-15T01:28:09;-0.60;99.90
49042;DHT22;34859;51.608;11.462;2023-02-15T01:30:35;-0.60;99.90
49042;DHT22;34859;51.608;11.462;2023-02-15T01:33:01;-0.40;99.90
49042;DHT22;34859;51.608;11.462;2023-02-15T01:35:27;-0.40;99.90
49042;DHT22;34859;51.608;11.462;2023-02-15T01:37:53;-0.40;99.90
49042;DHT22;34859;51.608;11.462;2023-02-15T01:40:19;-0.30;99.90
49042;DHT22;34859;51.608;11.462;2023-02-15T01:42:45;-0.40;99.90
49042;DHT22;34859;51.608;11.462;2023-02-15T01:47:44;-0.40;99.90
49042;DHT22;34859;51.608;11.462;2023-02-15T01:50:17;-0.50;99.90
49042;DHT22;34859;51.608;11.462;2023-02-15T01:52:46;-0.60;99.90
49042;DHT22;34859;51.608;11.462;2023-02-15T01:55:13;-0.70;99.90
49042;DHT22;34859;51.608;11.462;2023-02-15T01:57:40;-0.90;99.90
49042;DHT22;34859;51.608;11.462;2023-02-15T02:00:06;-1.00;99.90
49042;DHT22;34859;51.608;11.462;2023-02-15T02:02:33;-1.00;99.90
49042;DHT22;34859;51.608;11.462;2023-02-15T02:04:59;-1.10;99.90
49042;DHT22;34859;51.608;11.462;2023-02-15T02:07:29;-1.10;99.90
49042;DHT22;34859;51.608;11.462;2023-02-15T02:09:57;-1.00;99.90
49042;DHT22;34859;51.608;11.462;2023-02-15T02:12:22;-1.00;99.90
49042;DHT22;34859;51.608;11.462;2023-02-15T02:14:49;-0.90;99.90
49042;DHT22;34859;51.608;11.462;2023-02-15T02:27:29;-1.40;99.90
49042;DHT22;34859;51.608;11.462;2023-02-15T02:35:23;-1.20;99.90
49042;DHT22;34859;51.608;11.462;2023-02-15T02:45:43;-0.50;99.90
49042;DHT22;34859;51.608;11.462;2023-02-15T02:48:15;-0.50;99.90
49042;DHT22;34859;51.608;11.462;2023-02-15T02:50:42;-0.50;99.90
49042;DHT22;34859;51.608;11.462;2023-02-15T02:53:08;-0.50;99.90
49042;DHT22;34859;51.608;11.462;2023-02-15T02:55:35;-0.40;99.90
49042;DHT22;34859;51.608;11.462;2023-02-15T03:00:48;-0.40;99.90
49042;DHT22;34859;51.608;11.462;2023-02-15T03:03:16;-0.40;99.90
49042;DHT22;34859;51.608;11.462;2023-02-15T03:05:46;-0.30;99.90
49042;DHT22;34859;51.608;11.462;2023-02-15T03:08:13;-0.40;99.90
49042;DHT22;34859;51.608;11.462;2023-02-15T03:10:47;-0.40;99.90
49042;DHT22;34859;51.608;11.462;2023-02-15T03:13:13;-0.30;99.90
49042;DHT22;34859;51.608;11.462;2023-02-15T03:15:39;-0.30;99.90
49042;DHT22;34859;51.608;11.462;2023-02-15T03:18:25;-0.30;99.90
49042;DHT22;34859;51.608;11.462;2023-02-15T03:20:53;-0.30;99.90
49042;DHT22;34859;51.608;11.462;2023-02-15T03:23:22;-0.20;99.90
49042;DHT22;34859;51.608;11.462;2023-02-15T03:25:50;-0.20;99.90
49042;DHT22;34859;51.608;11.462;2023-02-15T03:28:25;-0.30;99.90
49042;DHT22;34859;51.608;11.462;2023-02-15T03:30:53;-0.20;99.90
49042;DHT22;34859;51.608;11.462;2023-02-15T03:33:21;-0.30;99.90
49042;DHT22;34859;51.608;11.462;2023-02-15T03:35:52;-0.30;99.90
49042;DHT22;34859;51.608;11.462;2023-02-15T03:38:25;-0.30;99.90
49042;DHT22;34859;51.608;11.462;2023-02-15T03:40:54;-0.30;99.90
49042;DHT22;34859;51.608;11.462;2023-02-15T03:48:49;-0.30;99.90
49042;DHT22;34859;51.608;11.462;2023-02-15T03:51:17;-0.40;99.90
49042;DHT22;34859;51.608;11.462;2023-02-15T03:53:59;-0.40;99.90
49042;DHT22;34859;51.608;11.462;2023-02-15T03:56:25;-0.30;99.90
49042;DHT22;34859;51.608;11.462;2023-02-15T03:58:51;-0.30;99.90
49042;DHT22;34859;51.608;11.462;2023-02-15T04:04:46;-0.40;99.90
49042;DHT22;34859;51.608;11.462;2023-02-15T04:07:08;-0.40;99.90
49042;DHT22;34859;51.608;11.462;2023-02-15T04:09:34;-0.40;99.90
49042;DHT22;34859;51.608;11.462;2023-02-15T04:12:19;-0.40;99.90
49042;DHT22;34859;51.608;11.462;2023-02-15T04:14:44;-0.30;99.90
49042;DHT22;34859;51.608;11.462;2023-02-15T04:17:29;-0.30;99.90
49042;DHT22;34859;51.608;11.462;2023-02-15T04:19:55;-0.30;99.90
49042;DHT22;34859;51.608;11.462;2023-02-15T04:22:40;-0.40;99.90
49042;DHT22;34859;51.608;11.462;2023-02-15T04:25:24;-0.40;99.90
49042;DHT22;34859;51.608;11.462;2023-02-15T04:27:50;-0.50;99.90
49042;DHT22;34859;51.608;11.462;2023-02-15T04:30:17;-0.50;99.90
49042;DHT22;34859;51.608;11.462;2023-02-15T04:32:44;-0.50;99.90
49042;DHT22;34859;51.608;11.462;2023-02-15T04:35:09;-0.50;99.90
49042;DHT22;34859;51.608;11.462;2023-02-15T04:37:36;-0.50;99.90
49042;DHT22;34859;51.608;11.462;2023-02-15T04:40:02;-0.50;99.90
49042;DHT22;34859;51.608;11.462;2023-02-15T04:42:27;-0.60;99.90
49042;DHT22;34859;51.608;11.462;2023-02-15T04:44:53;-0.60;99.90
49042;DHT22;34859;51.608;11.462;2023-02-15T04:47:19;-0.60;99.90
49042;DHT22;34859;51.608;11.462;2023-02-15T04:49:45;-0.70;99.90
49042;DHT22;34859;51.608;11.462;2023-02-15T04:52:11;-1.00;99.90
49042;DHT22;34859;51.608;11.462;2023-02-15T04:54:36;-1.00;99.90
49042;DHT22;34859;51.608;11.462;2023-02-15T04:57:03;-1.20;99.90
49042;DHT22;34859;51.608;11.462;2023-02-15T04:59:29;-1.30;99.90
49042;DHT22;34859;51.608;11.462;2023-02-15T05:01:54;-1.30;99.90
49042;DHT22;34859;51.608;11.462;2023-02-15T05:04:20;-1.20;99.90
49042;DHT22;34859;51.608;11.462;2023-02-15T05:06:46;-1.10;99.90
49042;DHT22;34859;51.608;11.462;2023-02-15T05:09:11;-1.00;99.90
49042;DHT22;34859;51.608;11.462;2023-02-15T05:11:37;-1.10;99.90
49042;DHT22;34859;51.608;11.462;2023-02-15T05:14:03;-1.20;99.90
49042;DHT22;34859;51.608;11.462;2023-02-15T05:16:29;-1.30;99.90
49042;DHT22;34859;51.608;11.462;2023-02-15T05:18:54;-1.40;99.90
49042;DHT22;34859;51.608;11.462;2023-02-15T05:21:20;-1.50;99.90
49042;DHT22;34859;51.608;11.462;2023-02-15T05:23:46;-1.50;99.90
49042;DHT22;34859;51.608;11.462;2023-02-15T05:26:12;-1.50;99.90
49042;DHT22;34859;51.608;11.462;2023-02-15T05:28:57;-1.60;99.90
49042;DHT22;34859;51.608;11.462;2023-02-15T05:31:22;-1.60;99.90
49042;DHT22;34859;51.608;11.462;2023-02-15T05:33:48;-1.70;99.90
49042;DHT22;34859;51.608;11.462;2023-02-15T05:36:14;-1.70;99.90
49042;DHT22;34859;51.608;11.462;2023-02-15T05:38:39;-1.70;99.90
49042;DHT22;34859;51.608;11.462;2023-02-15T05:41:05;-1.60;99.90
49042;DHT22;34859;51.608;11.462;2023-02-15T05:43:31;-1.60;99.90
49042;DHT22;34859;51.608;11.462;2023-02-15T05:45:57;-1.60;99.90
49042;DHT22;34859;51.608;11.462;2023-02-15T05:48:24;-1.60;99.90
49042;DHT22;34859;51.608;11.462;2023-02-15T05:50:57;-1.60;99.90
49042;DHT22;34859;51.608;11.462;2023-02-15T05:53:23;-1.70;99.90
49042;DHT22;34859;51.608;11.462;2023-02-15T05:55:48;-1.80;99.90
49042;DHT22;34859;51.608;11.462;2023-02-15T05:58:14;-1.80;99.90
49042;DHT22;34859;51.608;11.462;2023-02-15T06:00:40;-1.70;99.90
49042;DHT22;34859;51.608;11.462;2023-02-15T06:03:05;-1.80;99.90
49042;DHT22;34859;51.608;11.462;2023-02-15T06:05:31;-1.70;99.90
49042;DHT22;34859;51.608;11.462;2023-02-15T06:07:56;-1.80;99.90
49042;DHT22;34859;51.608;11.462;2023-02-15T06:10:22;-1.70;99.90
49042;DHT22;34859;51.608;11.462;2023-02-15T06:12:48;-1.70;99.90
49042;DHT22;34859;51.608;11.462;2023-02-15T06:15:13;-1.70;99.90
49042;DHT22;34859;51.608;11.462;2023-02-15T06:17:41;-1.80;99.90
49042;DHT22;34859;51.608;11.462;2023-02-15T06:20:06;-1.90;99.90
49042;DHT22;34859;51.608;11.462;2023-02-15T06:22:33;-1.90;99.90
49042;DHT22;34859;51.608;11.462;2023-02-15T06:24:59;-1.90;99.90
49042;DHT22;34859;51.608;11.462;2023-02-15T06:27:25;-1.80;99.90
49042;DHT22;34859;51.608;11.462;2023-02-15T06:29:50;-1.90;99.90
49042;DHT22;34859;51.608;11.462;2023-02-15T06:32:16;-1.90;99.90
49042;DHT22;34859;51.608;11.462;2023-02-15T06:34:42;-1.90;99.90
49042;DHT22;34859;51.608;11.462;2023-02-15T06:37:07;-1.80;99.90
49042;DHT22;34859;51.608;11.462;2023-02-15T06:39:33;-1.90;99.90
49042;DHT22;34859;51.608;11.462;2023-02-15T06:41:59;-1.90;99.90
49042;DHT22;34859;51.608;11.462;2023-02-15T06:44:25;-2.00;99.90
49042;DHT22;34859;51.608;11.462;2023-02-15T06:46:50;-2.00;99.90
49042;DHT22;34859;51.608;11.462;2023-02-15T06:49:16;-2.00;99.90
49042;DHT22;34859;51.608;11.462;2023-02-15T06:51:41;-1.90;99.90
49042;DHT22;34859;51.608;11.462;2023-02-15T06:54:07;-2.00;99.90
49042;DHT22;34859;51.608;11.462;2023-02-15T06:56:33;-2.00;99.90
49042;DHT22;34859;51.608;11.462;2023-02-15T06:58:59;-2.00;99.90
49042;DHT22;34859;51.608;11.462;2023-02-15T07:01:24;-2.00;99.90
49042;DHT22;34859;51.608;11.462;2023-02-15T07:03:50;-2.00;99.90
49042;DHT22;34859;51.608;11.462;2023-02-15T07:06:16;-1.90;99.90
49042;DHT22;34859;51.608;11.462;2023-02-15T07:08:41;-1.80;99.90
49042;DHT22;34859;51.608;11.462;2023-02-15T07:11:07;-1.80;99.90
49042;DHT22;34859;51.608;11.462;2023-02-15T07:13:51;-1.60;99.90
49042;DHT22;34859;51.608;11.462;2023-02-15T07:16:20;-1.70;99.90
49042;DHT22;34859;51.608;11.462;2023-02-15T07:18:46;-1.50;99.90
49042;DHT22;34859;51.608;11.462;2023-02-15T07:21:11;-1.30;99.90
49042;DHT22;34859;51.608;11.462;2023-02-15T07:23:38;-1.20;99.90
49042;DHT22;34859;51.608;11.462;2023-02-15T07:26:04;-1.10;99.90
49042;DHT22;34859;51.608;11.462;2023-02-15T07:28:30;-1.20;99.90
49042;DHT22;34859;51.608;11.462;2023-02-15T07:30:56;-1.30;99.90
49042;DHT22;34859;51.608;11.462;2023-02-15T07:33:23;-1.20;99.90
49042;DHT22;34859;51.608;11.462;2023-02-15T07:35:52;-1.20;99.90
49042;DHT22;34859;51.608;11.462;2023-02-15T07:38:19;-1.10;99.90
49042;DHT22;34859;51.608;11.462;2023-02-15T07:40:45;-1.10;99.90
49042;DHT22;34859;51.608;11.462;2023-02-15T07:43:11;-1.10;99.90
49042;DHT22;34859;51.608;11.462;2023-02-15T07:45:38;-1.10;99.90
49042;DHT22;34859;51.608;11.462;2023-02-15T07:48:05;-1.00;99.90
49042;DHT22;34859;51.608;11.462;2023-02-15T07:50:32;-0.90;99.90
49042;DHT22;34859;51.608;11.462;2023-02-15T07:53:00;-0.90;99.90
49042;DHT22;34859;51.608;11.462;2023-02-15T07:55:27;-0.80;99.90
49042;DHT22;34859;51.608;11.462;2023-02-15T07:57:53;-0.70;99.90
49042;DHT22;34859;51.608;11.462;2023-02-15T08:00:20;-0.70;99.90
49042;DHT22;34859;51.608;11.462;2023-02-15T08:02:51;-0.60;99.90
49042;DHT22;34859;51.608;11.462;2023-02-15T08:05:35;-0.50;99.90
49042;DHT22;34859;51.608;11.462;2023-02-15T08:08:04;-0.40;99.90
49042;DHT22;34859;51.608;11.462;2023-02-15T08:10:31;-0.30;99.90
49042;DHT22;34859;51.608;11.462;2023-02-15T08:13:15;-0.20;99.90
49042;DHT22;34859;51.608;11.462;2023-02-15T08:15:49;-0.10;99.90
49042;DHT22;34859;51.608;11.462;2023-02-15T08:18:15;0.00;99.90
49042;DHT22;34859;51.608;11.462;2023-02-15T08:20:42;0.20;99.90
49042;DHT22;34859;51.608;11.462;2023-02-15T08:23:08;0.40;99.90
49042;DHT22;34859;51.608;11.462;2023-02-15T08:25:35;0.60;99.90
49042;DHT22;34859;51.608;11.462;2023-02-15T08:28:01;0.70;99.90
49042;DHT22;34859;51.608;11.462;2023-02-15T08:30:28;0.80;99.90
49042;DHT22;34859;51.608;11.462;2023-02-15T08:32:54;1.00;99.90
49042;DHT22;34859;51.608;11.462;2023-02-15T08:35:21;1.10;99.90
49042;DHT22;34859;51.608;11.462;2023-02-15T08:37:48;1.20;99.90
49042;DHT22;34859;51.608;11.462;2023-02-15T08:40:14;1.40;99.90
49042;DHT22;34859;51.608;11.462;2023-02-15T08:42:41;1.60;99.90
49042;DHT22;34859;51.608;11.462;2023-02-15T08:45:09;1.60;99.90
49042;DHT22;34859;51.608;11.462;2023-02-15T08:47:36;1.70;99.90
49042;DHT22;34859;51.608;11.462;2023-02-15T08:50:03;1.80;99.90
49042;DHT22;34859;51.608;11.462;2023-02-15T08:52:30;2.00;99.90
49042;DHT22;34859;51.608;11.462;2023-02-15T08:54:56;2.10;99.90
49042;DHT22;34859;51.608;11.462;2023-02-15T08:57:23;2.20;99.90
49042;DHT22;34859;51.608;11.462;2023-02-15T08:59:50;2.30;99.90
49042;DHT22;34859;51.608;11.462;2023-02-15T09:02:16;2.30;99.90
49042;DHT22;34859;51.608;11.462;2023-02-15T09:04:43;2.50;99.90
49042;DHT22;34859;51.608;11.462;2023-02-15T09:07:09;2.60;99.90
49042;DHT22;34859;51.608;11.462;2023-02-15T09:09:36;2.80;99.90
49042;DHT22;34859;51.608;11.462;2023-02-15T09:12:03;2.90;99.90
49042;DHT22;34859;51.608;11.462;2023-02-15T09:14:29;3.00;99.90
49042;DHT22;34859;51.608;11.462;2023-02-15T09:16:56;3.30;99.90
49042;DHT22;34859;51.608;11.462;2023-02-15T09:19:24;3.50;99.90
49042;DHT22;34859;51.608;11.462;2023-02-15T09:21:50;3.60;99.90
49042;DHT22;34859;51.608;11.462;2023-02-15T09:24:17;3.80;99.90
49042;DHT22;34859;51.608;11.462;2023-02-15T09:26:45;3.90;99.90
49042;DHT22;34859;51.608;11.462;2023-02-15T09:29:13;4.10;99.90
49042;DHT22;34859;51.608;11.462;2023-02-15T09:31:40;4.30;99.90
49042;DHT22;34859;51.608;11.462;2023-02-15T09:34:10;4.40;99.90
49042;DHT22;34859;51.608;11.462;2023-02-15T09:36:55;4.60;99.90
49042;DHT22;34859;51.608;11.462;2023-02-15T09:39:40;4.80;99.90
49042;DHT22;34859;51.608;11.462;2023-02-15T10:00:28;6.50;99.90
49042;DHT22;34859;51.608;11.462;2023-02-15T10:05:27;6.90;99.90
49042;DHT22;34859;51.608;11.462;2023-02-15T10:21:31;7.60;99.90
49042;DHT22;34859;51.608;11.462;2023-02-15T10:26:45;8.00;99.90
49042;DHT22;34859;51.608;11.462;2023-02-15T10:34:09;8.20;99.90
49042;DHT22;34859;51.608;11.462;2023-02-15T10:43:08;8.40;99.90
49042;DHT22;34859;51.608;11.462;2023-02-15T18:16:02;3.60;99.90
49042;DHT22;34859;51.608;11.462;2023-02-15T18:19:38;3.20;99.90
49042;DHT22;34859;51.608;11.462;2023-02-15T18:23:08;3.10;99.90
49042;DHT22;34859;51.608;11.462;2023-02-15T18:26:37;3.20;99.90
49042;DHT22;34859;51.608;11.462;2023-02-15T18:30:19;3.40;99.90
49042;DHT22;34859;51.608;11.462;2023-02-15T18:33:47;3.50;99.90
49042;DHT22;34859;51.608;11.462;2023-02-15T18:37:17;3.60;99.90
49042;DHT22;34859;51.608;11.462;2023-02-15T18:40:47;3.50;99.90
49042;DHT22;34859;51.608;11.462;2023-02-15T18:44:15;3.30;99.90
49042;DHT22;34859;51.608;11.462;2023-02-15T18:47:38;3.10;99.90
49042;DHT22;34859;51.608;11.462;2023-02-15T18:50:58;3.10;99.90
49042;DHT22;34859;51.608;11.462;2023-02-15T18:54:25;3.10;99.90
49042;DHT22;34859;51.608;11.462;2023-02-15T18:57:37;3.40;99.90
49042;DHT22;34859;51.608;11.462;2023-02-15T19:00:55;3.70;99.90
49042;DHT22;34859;51.608;11.462;2023-02-15T19:04:21;4.00;99.90
49042;DHT22;34859;51.608;11.462;2023-02-15T19:07:33;4.30;99.90
49042;DHT22;34859;51.608;11.462;2023-02-15T19:10:51;4.40;99.90
49042;DHT22;34859;51.608;11.462;2023-02-15T19:14:34;4.30;99.90
49042;DHT22;34859;51.608;11.462;2023-02-15T19:21:34;4.00;99.90
49042;DHT22;34859;51.608;11.462;2023-02-15T19:31:04;3.80;99.90
49042;DHT22;34859;51.608;11.462;2023-02-15T19:41:36;3.80;99.90
49042;DHT22;34859;51.608;11.462;2023-02-15T19:45:11;3.70;99.90
49042;DHT22;34859;51.608;11.462;2023-02-15T19:47:37;3.70;99.90
49042;DHT22;34859;51.608;11.462;2023-02-15T19:50:03;3.70;99.90
49042;DHT22;34859;51.608;11.462;2023-02-15T19:52:29;3.60;99.90
49042;DHT22;34859;51.608;11.462;2023-02-15T19:54:55;3.60;99.90
49042;DHT22;34859;51.608;11.462;2023-02-15T19:57:21;3.50;99.90
49042;DHT22;34859;51.608;11.462;2023-02-15T19:59:47;3.50;99.90
49042;DHT22;34859;51.608;11.462;2023-02-15T20:02:13;3.50;99.90
49042;DHT22;34859;51.608;11.462;2023-02-15T20:04:39;3.60;99.90
49042;DHT22;34859;51.608;11.462;2023-02-15T20:07:06;3.60;99.90
49042;DHT22;34859;51.608;11.462;2023-02-15T20:09:33;3.50;99.90
49042;DHT22;34859;51.608;11.462;2023-02-15T20:12:12;3.50;99.90
49042;DHT22;34859;51.608;11.462;2023-02-15T20:14:40;3.50;99.90
49042;DHT22;34859;51.608;11.462;2023-02-15T20:17:07;3.50;99.90
49042;DHT22;34859;51.608;11.462;2023-02-15T20:19:33;3.50;99.90
49042;DHT22;34859;51.608;11.462;2023-02-15T20:21:58;3.30;99.90
49042;DHT22;34859;51.608;11.462;2023-02-15T20:24:25;3.20;99.90
49042;DHT22;34859;51.608;11.462;2023-02-15T20:26:52;3.20;99.90
49042;DHT22;34859;51.608;11.462;2023-02-15T20:29:17;3.20;99.90
49042;DHT22;34859;51.608;11.462;2023-02-15T20:31:43;3.10;99.90
49042;DHT22;34859;51.608;11.462;2023-02-15T20:34:09;3.10;99.90
49042;DHT22;34859;51.608;11.462;2023-02-15T20:36:35;3.00;99.90
49042;DHT22;34859;51.608;11.462;2023-02-15T20:39:03;3.10;99.90
49042;DHT22;34859;51.608;11.462;2023-02-15T20:41:31;3.10;99.90
49042;DHT22;34859;51.608;11.462;2023-02-15T20:44:24;3.10;99.90
49042;DHT22;34859;51.608;11.462;2023-02-15T20:46:52;3.20;99.90
49042;DHT22;34859;51.608;11.462;2023-02-15T20:49:17;3.20;99.90
49042;DHT22;34859;51.608;11.462;2023-02-15T20:51:43;3.30;99.90
49042;DHT22;34859;51.608;11.462;2023-02-15T20:54:12;3.20;99.90
49042;DHT22;34859;51.608;11.462;2023-02-15T20:56:37;3.20;99.90
49042;DHT22;34859;51.608;11.462;2023-02-15T20:59:05;3.20;99.90
49042;DHT22;34859;51.608;11.462;2023-02-15T21:01:31;3.10;99.90
49042;DHT22;34859;51.608;11.462;2023-02-15T21:03:56;3.00;99.90
49042;DHT22;34859;51.608;11.462;2023-02-15T21:06:22;3.00;99.90
49042;DHT22;34859;51.608;11.462;2023-02-15T21:08:48;2.90;99.90
49042;DHT22;34859;51.608;11.462;2023-02-15T21:11:15;2.90;99.90
49042;DHT22;34859;51.608;11.462;2023-02-15T21:13:42;2.90;99.90
49042;DHT22;34859;51.608;11.462;2023-02-15T21:16:07;2.80;99.90
49042;DHT22;34859;51.608;11.462;2023-02-15T21:18:33;2.90;99.90
49042;DHT22;34859;51.608;11.462;2023-02-15T21:21:00;2.90;99.90
49042;DHT22;34859;51.608;11.462;2023-02-15T21:23:28;2.90;99.90
49042;DHT22;34859;51.608;11.462;2023-02-15T21:25:54;2.90;99.90
49042;DHT22;34859;51.608;11.462;2023-02-15T21:28:23;2.90;99.90
49042;DHT22;34859;51.608;11.462;2023-02-15T21:30:50;3.00;99.90
49042;DHT22;34859;51.608;11.462;2023-02-15T21:33:16;3.10;99.90
49042;DHT22;34859;51.608;11.462;2023-02-15T21:35:48;3.10;99.90
49042;DHT22;34859;51.608;11.462;2023-02-15T21:38:15;3.00;99.90
49042;DHT22;34859;51.608;11.462;2023-02-15T21:40:41;3.10;99.90
49042;DHT22;34859;51.608;11.462;2023-02-15T21:43:14;3.10;99.90
49042;DHT22;34859;51.608;11.462;2023-02-15T21:46:00;3.10;99.90
49042;DHT22;34859;51.608;11.462;2023-02-15T21:48:44;3.20;99.90
49042;DHT22;34859;51.608;11.462;2023-02-15T21:51:10;3.10;99.90
49042;DHT22;34859;51.608;11.462;2023-02-15T21:53:54;3.20;99.90
49042;DHT22;34859;51.608;11.462;2023-02-15T21:56:20;3.20;99.90
49042;DHT22;34859;51.608;11.462;2023-02-15T21:58:46;3.10;99.90
49042;DHT22;34859;51.608;11.462;2023-02-15T22:01:22;3.00;99.90
49042;DHT22;34859;51.608;11.462;2023-02-15T22:03:49;3.10;99.90
49042;DHT22;34859;51.608;11.462;2023-02-15T22:06:15;3.10;99.90
49042;DHT22;34859;51.608;11.462;2023-02-15T22:08:41;3.10;99.90
49042;DHT22;34859;51.608;11.462;2023-02-15T22:11:10;3.10;99.90
49042;DHT22;34859;51.608;11.462;2023-02-15T22:13:37;3.10;99.90
49042;DHT22;34859;51.608;11.462;2023-02-15T22:16:03;3.10;99.90
49042;DHT22;34859;51.608;11.462;2023-02-15T22:18:30;3.10;99.90
49042;DHT22;34859;51.608;11.462;2023-02-15T22:20:56;3.20;99.90
49042;DHT22;34859;51.608;11.462;2023-02-15T22:23:22;3.20;99.90
49042;DHT22;34859;51.608;11.462;2023-02-15T22:25:58;3.20;99.90
49042;DHT22;34859;51.608;11.462;2023-02-15T22:28:31;3.20;99.90
49042;DHT22;34859;51.608;11.462;2023-02-15T22:30:58;3.20;99.90
49042;DHT22;34859;51.608;11.462;2023-02-15T22:33:25;3.30;99.90
49042;DHT22;34859;51.608;11.462;2023-02-15T22:35:51;3.40;99.90
49042;DHT22;34859;51.608;11.462;2023-02-15T22:38:17;3.40;99.90
49042;DHT22;34859;51.608;11.462;2023-02-15T22:40:43;3.40;99.90
49042;DHT22;34859;51.608;11.462;2023-02-15T22:43:12;3.40;99.90
49042;DHT22;34859;51.608;11.462;2023-02-15T22:45:41;3.30;99.90
49042;DHT22;34859;51.608;11.462;2023-02-15T22:48:07;3.30;99.90
49042;DHT22;34859;51.608;11.462;2023-02-15T22:50:34;3.20;99.90
49042;DHT22;34859;51.608;11.462;2023-02-15T22:53:00;3.10;99.90
49042;DHT22;34859;51.608;11.462;2023-02-15T22:55:27;2.90;99.90
49042;DHT22;34859;51.608;11.462;2023-02-15T22:57:53;3.00;99.90
49042;DHT22;34859;51.608;11.462;2023-02-15T23:00:23;2.90;99.90
49042;DHT22;34859;51.608;11.462;2023-02-15T23:02:49;2.80;99.90
49042;DHT22;34859;51.608;11.462;2023-02-15T23:05:19;2.80;99.90
49042;DHT22;34859;51.608;11.462;2023-02-15T23:07:45;2.80;99.90
49042;DHT22;34859;51.608;11.462;2023-02-15T23:10:12;2.80;99.90
49042;DHT22;34859;51.608;11.462;2023-02-15T23:15:33;3.20;99.90
49042;DHT22;34859;51.608;11.462;2023-02-15T23:18:05;3.30;99.90
49042;DHT22;34859;51.608;11.462;2023-02-15T23:20:34;3.40;99.90
49042;DHT22;34859;51.608;11.462;2023-02-15T23:23:00;3.50;99.90
49042;DHT22;34859;51.608;11.462;2023-02-15T23:25:25;3.40;99.90
49042;DHT22;34859;51.608;11.462;2023-02-15T23:27:52;3.50;99.90
49042;DHT22;34859;51.608;11.462;2023-02-15T23:30:23;3.50;99.90
49042;DHT22;34859;51.608;11.462;2023-02-15T23:32:51;3.50;99.90
49042;DHT22;34859;51.608;11.462;2023-02-15T23:35:17;3.50;99.90
49042;DHT22;34859;51.608;11.462;2023-02-15T23:37:43;3.50;99.90
49042;DHT22;34859;51.608;11.462;2023-02-15T23:40:27;3.50;99.90
49042;DHT22;34859;51.608;11.462;2023-02-15T23:43:14;3.50;99.90
49042;DHT22;34859;51.608;11.462;2023-02-15T23:45:43;3.50;99.90
49042;DHT22;34859;51.608;11.462;2023-02-15T23:48:19;3.50;99.90
49042;DHT22;34859;51.608;11.462;2023-02-15T23:50:56;3.50;99.90
49042;DHT22;34859;51.608;11.462;2023-02-15T23:53:22;3.50;99.90
49042;DHT22;34859;51.608;11.462;2023-02-15T23:55:47;3.50;99.90
49042;DHT22;34859;51.608;11.462;2023-02-15T23:58:15;3.50;99.90
